Erquelinnes, Belgium
Current Conditions -  °F | °C
As of 3:20 AM on Friday 21 Nov 2014 (Local Time) from EBCI Reporting Station
Haze Haze  
Wind Chill: -2°   Ceiling: Unl
Heat Index:   Visibility: 1.2mi
Dew Point:   Wind: 7mph
Humidity: 100%   Direction: 60°ENE
Pressure: 30.18"   Gusts: NA
Location:  50.31°N, 4.11°E
Report Text: EBCI 210220Z 06006KT 2000 BR NSC 01/01 Q1022 NOSIG
Loading
Personal Weather Stations






























Interactive Weather Map New forecast layout! Learn more

10-Day Weather Forecast

Advertisements
Track Severe Weather on mobile